createdAt,value
2023-04-28T00:00:39.472Z,99005.02
2023-04-28T00:02:01.504Z,98999.57
2023-04-28T00:03:25.815Z,99003.83
2023-04-28T00:05:01.925Z,98999.70
2023-04-28T00:06:26.236Z,99003.87
2023-04-28T00:07:49.046Z,99003.84
2023-04-28T00:09:15.420Z,99000.42
2023-04-28T00:10:37.892Z,98999.62
2023-04-28T00:12:11.368Z,99001.14
2023-04-28T00:13:37.940Z,98993.52
2023-04-28T00:15:09.130Z,99005.06
2023-04-28T00:16:43.225Z,99001.89
2023-04-28T00:18:16.898Z,98997.22
2023-04-28T00:19:38.992Z,98998.42
2023-04-28T00:21:01.728Z,98998.89
2023-04-28T00:22:30.806Z,98996.14
2023-04-28T00:24:03.931Z,99000.86
2023-04-28T00:25:27.851Z,99000.50
2023-04-28T00:26:52.452Z,98999.23
2023-04-28T00:28:18.400Z,98999.29
2023-04-28T00:29:51.053Z,98999.81
2023-04-28T00:31:13.025Z,98996.86
2023-04-28T00:32:42.612Z,98998.77
2023-04-28T00:34:15.747Z,98981.09
2023-04-28T00:35:45.830Z,98998.45
2023-04-28T00:37:12.164Z,98997.43
2023-04-28T00:38:34.467Z,99002.40
2023-04-28T00:39:58.097Z,99000.85
2023-04-28T00:41:24.390Z,99008.04
2023-04-28T00:42:46.240Z,99007.08
2023-04-28T00:44:07.977Z,99010.16
2023-04-28T00:45:32.710Z,99010.22
2023-04-28T00:47:05.995Z,99011.13
2023-04-28T00:48:29.784Z,99010.27
2023-04-28T00:50:05.664Z,99010.87
2023-04-28T00:51:41.698Z,99012.30
2023-04-28T00:53:14.726Z,99016.45
2023-04-28T00:54:44.468Z,99016.79
2023-04-28T00:56:06.613Z,99015.07
2023-04-28T00:57:28.607Z,99018.70
2023-04-28T00:58:52.445Z,99021.08
2023-04-28T01:00:25.802Z,99021.39
2023-04-28T01:01:47.565Z,99016.48
2023-04-28T01:03:20.841Z,99015.21
2023-04-28T01:04:42.891Z,99018.27
2023-04-28T01:06:04.731Z,99013.94
2023-04-28T01:07:38.560Z,99017.05
2023-04-28T01:09:08.349Z,99016.52
2023-04-28T01:10:43.434Z,99018.34
2023-04-28T01:12:07.516Z,99019.52
2023-04-28T01:13:47.921Z,99018.37
2023-04-28T01:15:13.947Z,99019.09
2023-04-28T01:16:38.842Z,99015.98
2023-04-28T01:18:00.601Z,99021.46
2023-04-28T01:19:23.432Z,99024.27
2023-04-28T01:20:46.312Z,99021.55
2023-04-28T01:22:19.823Z,99023.17
2023-04-28T01:23:53.427Z,99022.21
2023-04-28T01:25:23.012Z,99018.52
2023-04-28T01:26:52.117Z,99018.86
2023-04-28T01:28:25.784Z,99007.48
2023-04-28T01:29:58.971Z,99020.30
2023-04-28T01:31:32.624Z,99017.91
2023-04-28T01:33:04.360Z,99020.70
2023-04-28T01:34:28.255Z,99019.25
2023-04-28T01:36:11.456Z,99018.67
2023-04-28T01:37:35.629Z,99011.73
2023-04-28T01:39:08.822Z,99019.08
2023-04-28T01:40:50.295Z,99018.10
2023-04-28T01:42:24.070Z,99017.32
2023-04-28T01:43:56.595Z,99016.78
2023-04-28T01:45:22.741Z,99004.20
2023-04-28T01:47:07.762Z,99018.39
2023-04-28T01:48:44.264Z,99017.52
2023-04-28T01:50:07.363Z,99015.77
2023-04-28T01:51:43.281Z,99014.36
2023-04-28T01:53:20.589Z,99017.13
2023-04-28T01:54:47.670Z,99014.48
2023-04-28T01:56:11.462Z,99011.84
2023-04-28T01:57:35.836Z,99010.16
2023-04-28T01:58:59.671Z,99008.23
2023-04-28T02:00:33.682Z,99008.13
2023-04-28T02:01:57.940Z,99009.95
2023-04-28T02:03:28.784Z,99009.37
2023-04-28T02:04:58.178Z,99012.41
2023-04-28T02:06:19.852Z,99012.33
2023-04-28T02:07:44.007Z,99011.17
2023-04-28T02:09:17.513Z,99012.79
2023-04-28T02:10:56.629Z,99008.35
2023-04-28T02:12:18.632Z,99011.06
2023-04-28T02:13:42.676Z,99009.84
2023-04-28T02:15:17.914Z,99014.17
2023-04-28T02:16:40.198Z,99013.69
2023-04-28T02:18:13.221Z,99015.64
2023-04-28T02:19:38.645Z,99006.95
2023-04-28T02:21:00.548Z,99015.27
2023-04-28T02:22:41.674Z,99011.54
2023-04-28T02:24:11.383Z,99017.89
2023-04-28T02:25:36.050Z,99012.65
2023-04-28T02:26:58.983Z,99014.38
2023-04-28T02:28:32.367Z,99016.76
2023-04-28T02:30:05.506Z,99017.14
2023-04-28T02:31:34.660Z,99014.72
2023-04-28T02:32:56.420Z,99012.79
2023-04-28T02:34:33.493Z,99018.13
2023-04-28T02:36:07.942Z,99002.27
2023-04-28T02:37:35.101Z,99018.39
2023-04-28T02:38:59.414Z,99018.45
2023-04-28T02:40:22.222Z,99017.66
2023-04-28T02:41:53.732Z,99015.94
2023-04-28T02:43:27.254Z,99020.33
2023-04-28T02:44:56.317Z,99013.59
2023-04-28T02:46:41.373Z,99020.16
2023-04-28T02:48:19.565Z,99018.06
2023-04-28T02:49:41.822Z,99021.76
2023-04-28T02:51:10.793Z,99023.46
2023-04-28T02:52:35.607Z,99021.25
2023-04-28T02:53:57.182Z,99022.16
2023-04-28T02:55:26.386Z,99022.82
2023-04-28T02:57:06.676Z,99026.21
2023-04-28T02:58:31.033Z,99025.48
2023-04-28T02:59:53.102Z,99023.72
2023-04-28T03:01:17.389Z,99024.36
2023-04-28T03:02:39.467Z,99021.23
2023-04-28T03:04:03.417Z,99023.10
2023-04-28T03:05:40.462Z,99023.16
2023-04-28T03:07:04.542Z,99017.05
2023-04-28T03:08:36.429Z,99022.35
2023-04-28T03:10:00.945Z,99018.11
2023-04-28T03:11:25.662Z,99017.25
2023-04-28T03:12:49.511Z,99017.79
2023-04-28T03:14:13.782Z,99017.24
2023-04-28T03:15:54.682Z,99017.23
2023-04-28T03:17:16.224Z,99016.60
2023-04-28T03:18:38.837Z,99015.29
2023-04-28T03:20:00.301Z,99021.48
2023-04-28T03:21:26.378Z,99019.88
2023-04-28T03:22:50.650Z,99018.90
2023-04-28T03:24:22.036Z,99020.98
2023-04-28T03:26:00.602Z,99020.31
2023-04-28T03:27:22.501Z,99025.43
2023-04-28T03:28:46.162Z,99021.48
2023-04-28T03:30:16.218Z,99021.20
2023-04-28T03:31:38.582Z,99017.26
2023-04-28T03:33:03.092Z,99024.82
2023-04-28T03:34:36.861Z,99017.23
2023-04-28T03:36:02.615Z,99023.86
2023-04-28T03:37:27.205Z,99024.77
2023-04-28T03:39:00.511Z,99024.67
2023-04-28T03:40:29.729Z,99022.16
2023-04-28T03:42:06.253Z,99025.14
2023-04-28T03:43:58.434Z,99020.85
2023-04-28T03:45:30.724Z,99022.91
2023-04-28T03:46:52.490Z,99021.34
2023-04-28T03:48:26.305Z,99027.23
2023-04-28T03:49:55.143Z,99024.33
2023-04-28T03:51:36.793Z,99025.98
2023-04-28T03:53:10.012Z,99025.58
2023-04-28T03:54:41.593Z,99023.19
2023-04-28T03:56:03.048Z,99023.99
2023-04-28T03:57:25.100Z,99024.70
2023-04-28T03:58:54.223Z,99023.77
2023-04-28T04:00:19.893Z,99024.89
2023-04-28T04:01:49.327Z,99026.23
2023-04-28T04:03:13.337Z,99024.77
2023-04-28T04:04:39.102Z,99027.94
2023-04-28T04:06:04.019Z,99030.38
2023-04-28T04:07:37.907Z,99030.58
2023-04-28T04:09:02.266Z,99028.02
2023-04-28T04:10:27.788Z,99031.85
2023-04-28T04:11:57.186Z,99031.25
2023-04-28T04:13:19.313Z,99033.04
2023-04-28T04:14:43.519Z,99031.20
2023-04-28T04:16:18.532Z,99033.61
2023-04-28T04:17:40.922Z,99031.37
2023-04-28T04:19:04.522Z,99031.44
2023-04-28T04:20:55.913Z,99030.94
2023-04-28T04:22:30.109Z,99034.11
2023-04-28T04:23:51.488Z,99035.12
2023-04-28T04:25:12.978Z,99033.33
2023-04-28T04:26:35.259Z,99034.90
2023-04-28T04:28:04.924Z,99039.02
2023-04-28T04:29:35.250Z,99034.92
2023-04-28T04:31:04.253Z,99039.48
2023-04-28T04:32:45.101Z,99038.28
2023-04-28T04:34:21.283Z,99033.73
2023-04-28T04:35:55.453Z,99038.23
2023-04-28T04:37:30.034Z,99041.14
2023-04-28T04:39:05.973Z,99038.17
2023-04-28T04:40:50.225Z,99039.30
2023-04-28T04:42:24.159Z,99040.81
2023-04-28T04:44:13.136Z,99037.17
2023-04-28T04:45:49.907Z,99032.04
2023-04-28T04:47:25.780Z,99037.60
2023-04-28T04:48:52.117Z,99035.48
2023-04-28T04:50:37.926Z,99034.41
2023-04-28T04:52:19.028Z,99037.02
2023-04-28T04:53:45.872Z,99034.52
2023-04-28T04:55:19.163Z,99034.29
2023-04-28T04:56:52.758Z,99028.45
2023-04-28T04:58:36.196Z,99026.73
2023-04-28T05:01:05.912Z,99024.15
2023-04-28T05:02:36.983Z,99027.02
2023-04-28T05:04:11.335Z,99030.92
2023-04-28T05:05:54.547Z,99016.64
2023-04-28T05:07:33.298Z,99029.58
2023-04-28T05:09:08.386Z,99030.51
2023-04-28T05:10:35.389Z,99030.46
2023-04-28T05:11:57.929Z,99030.52
2023-04-28T05:13:31.928Z,99033.73
2023-04-28T05:15:09.967Z,99033.80
2023-04-28T05:16:34.346Z,99036.73
2023-04-28T05:18:16.788Z,99039.49
2023-04-28T05:20:00.553Z,99030.62
2023-04-28T05:21:26.899Z,99043.04
2023-04-28T05:22:51.268Z,99042.42
2023-04-28T05:24:22.249Z,99035.96
2023-04-28T05:26:12.552Z,99039.33
2023-04-28T05:27:41.772Z,99038.95
2023-04-28T05:29:10.437Z,99040.32
2023-04-28T05:30:45.177Z,99041.26
2023-04-28T05:32:22.485Z,99043.22
2023-04-28T05:34:07.752Z,99040.89
2023-04-28T05:35:32.011Z,99037.15
2023-04-28T05:36:53.779Z,99046.53
2023-04-28T05:38:34.999Z,99044.12
2023-04-28T05:40:08.087Z,99041.55
2023-04-28T05:41:43.846Z,99042.96
2023-04-28T05:43:19.171Z,99042.98
2023-04-28T05:45:14.550Z,99041.79
2023-04-28T05:46:56.630Z,99041.68
2023-04-28T05:48:43.991Z,99037.92
2023-04-28T05:50:20.115Z,99042.59
2023-04-28T05:51:49.109Z,99038.86
2023-04-28T05:53:20.829Z,99038.48
2023-04-28T05:55:05.859Z,99036.31
2023-04-28T05:56:37.742Z,99038.34
2023-04-28T05:58:18.691Z,99033.34
2023-04-28T05:59:52.165Z,99038.27
2023-04-28T06:01:33.046Z,99038.21
2023-04-28T06:03:18.657Z,99039.49
2023-04-28T06:04:52.919Z,99041.00
2023-04-28T06:06:14.981Z,99038.52
2023-04-28T06:08:09.520Z,99039.92
2023-04-28T06:09:45.707Z,99041.66
2023-04-28T06:11:11.818Z,99043.67
2023-04-28T06:12:39.351Z,99044.08
2023-04-28T06:16:24.379Z,99042.27
2023-04-28T06:20:14.562Z,99044.86
2023-04-28T06:21:54.687Z,99039.95
2023-04-28T06:23:18.510Z,99039.36
2023-04-28T06:25:00.999Z,99039.96
2023-04-28T06:26:41.826Z,99038.96
2023-04-28T06:28:27.597Z,99040.84
2023-04-28T06:29:56.841Z,99042.37
2023-04-28T06:31:42.155Z,99043.31
2023-04-28T06:33:06.654Z,99038.06
2023-04-28T06:34:41.554Z,99039.71
2023-04-28T06:36:26.219Z,99034.66
2023-04-28T06:38:11.065Z,99034.96
2023-04-28T06:39:43.141Z,99031.49
2023-04-28T06:41:25.512Z,99031.48
2023-04-28T06:42:57.542Z,99031.48
2023-04-28T06:44:28.734Z,99033.00
2023-04-28T06:45:51.180Z,99035.34
2023-04-28T06:47:36.233Z,99035.12
2023-04-28T06:49:11.725Z,99034.36
2023-04-28T06:50:44.066Z,99032.81
2023-04-28T06:52:07.772Z,99031.73
2023-04-28T06:53:44.251Z,99025.29
2023-04-28T06:55:17.731Z,99025.58
2023-04-28T06:56:39.940Z,99025.58
2023-04-28T06:58:13.107Z,99027.73
2023-04-28T06:59:37.511Z,99024.45
2023-04-28T07:01:06.857Z,99023.56
2023-04-28T07:02:36.515Z,99023.16
2023-04-28T07:04:06.444Z,99025.70
2023-04-28T07:05:40.694Z,99021.96
2023-04-28T07:07:09.754Z,99023.52
2023-04-28T07:08:34.436Z,99028.08
2023-04-28T07:09:56.232Z,99015.02
2023-04-28T07:11:37.236Z,99026.48
2023-04-28T07:13:22.149Z,99020.58
2023-04-28T07:14:55.738Z,99021.52
2023-04-28T07:16:29.535Z,99018.58
2023-04-28T07:18:04.963Z,99020.96
2023-04-28T07:19:31.525Z,99017.16
2023-04-28T07:20:55.585Z,99015.96
2023-04-28T07:22:28.749Z,99018.70
2023-04-28T07:24:04.285Z,99022.70
2023-04-28T07:25:39.693Z,99017.30
2023-04-28T07:27:20.294Z,99016.30
2023-04-28T07:28:44.911Z,99014.77
2023-04-28T07:30:26.516Z,99014.45
2023-04-28T07:32:01.204Z,99010.11
2023-04-28T07:33:34.545Z,99003.67
2023-04-28T07:35:07.754Z,99007.86
2023-04-28T07:36:29.770Z,99006.95
2023-04-28T07:37:55.710Z,99006.42
2023-04-28T07:39:19.855Z,99010.56
2023-04-28T07:40:56.171Z,99007.58
2023-04-28T07:42:20.144Z,99003.95
2023-04-28T07:43:53.423Z,99001.87
2023-04-28T07:45:28.986Z,98997.77
2023-04-28T07:47:14.082Z,98999.14
2023-04-28T07:48:45.978Z,98981.29
2023-04-28T07:50:09.902Z,98986.36
2023-04-28T07:51:57.129Z,98993.21
2023-04-28T07:53:21.081Z,98999.17
2023-04-28T07:55:06.009Z,98996.24
2023-04-28T07:56:42.999Z,98997.84
2023-04-28T07:58:16.250Z,98997.28
2023-04-28T07:59:41.015Z,98996.88
2023-04-28T08:01:16.196Z,98998.11
2023-04-28T08:02:38.022Z,98992.02
2023-04-28T08:04:23.705Z,98994.85
2023-04-28T08:06:09.618Z,98994.98
2023-04-28T08:07:54.993Z,98990.08
2023-04-28T08:09:41.700Z,98998.26
2023-04-28T08:11:26.358Z,98992.40
2023-04-28T08:13:00.118Z,98991.29
2023-04-28T08:14:49.356Z,98986.06
2023-04-28T08:18:23.184Z,98985.95
2023-04-28T08:19:59.067Z,98976.58
2023-04-28T08:21:46.800Z,98985.51
2023-04-28T08:23:36.269Z,98991.95
2023-04-28T08:25:21.522Z,98989.94
2023-04-28T08:27:13.848Z,98987.91
2023-04-28T08:28:51.028Z,98983.34
2023-04-28T08:30:24.494Z,98986.27
2023-04-28T08:32:10.600Z,98979.79
2023-04-28T08:33:51.726Z,98981.88
2023-04-28T08:35:32.400Z,98977.98
2023-04-28T08:37:17.413Z,98977.80
2023-04-28T08:39:13.045Z,98981.75
2023-04-28T08:40:38.597Z,98976.05
2023-04-28T08:42:14.703Z,98978.91
2023-04-28T08:43:46.196Z,98981.95
2023-04-28T08:45:22.039Z,98975.05
2023-04-28T08:46:58.357Z,98977.59
2023-04-28T08:48:34.300Z,98971.70
2023-04-28T08:50:14.508Z,98974.15
2023-04-28T08:51:56.818Z,98971.86
2023-04-28T08:55:18.042Z,98969.84
2023-04-28T08:56:51.398Z,98970.77
2023-04-28T08:58:36.789Z,98967.84
2023-04-28T09:00:10.289Z,98966.09
2023-04-28T09:01:46.837Z,98954.45
2023-04-28T09:03:35.165Z,98960.39
2023-04-28T09:04:57.861Z,98962.25
2023-04-28T09:06:24.329Z,98957.61
2023-04-28T09:08:05.067Z,98958.30
2023-04-28T09:09:36.988Z,98952.52
2023-04-28T09:11:05.384Z,98954.25
2023-04-28T09:12:39.356Z,98948.17
2023-04-28T09:14:12.904Z,98947.50
2023-04-28T09:15:46.334Z,98948.45
2023-04-28T09:17:22.198Z,98944.00
2023-04-28T09:19:05.496Z,98943.92
2023-04-28T09:20:39.053Z,98934.55
2023-04-28T09:22:26.060Z,98930.73
2023-04-28T09:23:49.275Z,98936.63
2023-04-28T09:25:33.172Z,98936.67
2023-04-28T09:26:55.780Z,98938.55
2023-04-28T09:28:37.157Z,98933.30
2023-04-28T09:30:10.766Z,98932.36
2023-04-28T09:31:44.898Z,98928.09
2023-04-28T09:33:10.718Z,98934.98
2023-04-28T09:34:53.655Z,98931.51
2023-04-28T09:36:27.165Z,98937.13
2023-04-28T09:38:00.498Z,98934.25
2023-04-28T09:39:24.306Z,98931.30
2023-04-28T09:40:57.592Z,98925.29
2023-04-28T09:42:31.011Z,98921.37
2023-04-28T09:44:12.301Z,98926.08
2023-04-28T09:45:34.560Z,98921.23
2023-04-28T09:47:10.202Z,98923.73
2023-04-28T09:48:32.236Z,98925.31
2023-04-28T09:50:07.620Z,98920.85
2023-04-28T09:51:58.394Z,98915.02
2023-04-28T09:53:30.380Z,98915.92
2023-04-28T09:54:56.810Z,98906.02
2023-04-28T09:56:20.643Z,98904.60
2023-04-28T09:58:14.153Z,98906.01
2023-04-28T09:59:43.664Z,98891.34
2023-04-28T10:01:16.426Z,98906.95
2023-04-28T10:02:46.171Z,98899.85
2023-04-28T10:04:15.771Z,98895.77
2023-04-28T10:05:48.364Z,98890.30
2023-04-28T10:07:21.514Z,98892.54
2023-04-28T10:08:50.908Z,98885.83
2023-04-28T10:10:27.211Z,98893.31
2023-04-28T10:11:49.301Z,98890.17
2023-04-28T10:13:25.239Z,98894.00
2023-04-28T10:15:03.337Z,98891.45
2023-04-28T10:16:32.970Z,98887.23
2023-04-28T10:18:02.177Z,98883.00
2023-04-28T10:19:27.302Z,98882.11
2023-04-28T10:20:48.853Z,98877.45
2023-04-28T10:22:10.068Z,98880.27
2023-04-28T10:23:45.454Z,98881.19
2023-04-28T10:25:14.534Z,98883.77
2023-04-28T10:26:39.147Z,98878.58
2023-04-28T10:28:10.485Z,98879.22
2023-04-28T10:29:33.928Z,98874.02
2023-04-28T10:31:15.077Z,98871.08
2023-04-28T10:32:37.368Z,98868.55
2023-04-28T10:34:10.880Z,98875.65
2023-04-28T10:35:59.429Z,98865.62
2023-04-28T10:37:44.606Z,98857.13
2023-04-28T10:39:17.738Z,98856.26
2023-04-28T10:40:39.725Z,98856.32
2023-04-28T10:42:01.877Z,98849.60
2023-04-28T10:43:23.684Z,98858.67
2023-04-28T10:44:45.745Z,98859.71
2023-04-28T10:46:07.250Z,98857.09
2023-04-28T10:47:52.434Z,98850.25
2023-04-28T10:49:17.051Z,98854.06
2023-04-28T10:50:53.307Z,98855.50
2023-04-28T10:52:15.025Z,98860.40
2023-04-28T10:53:37.028Z,98857.85
2023-04-28T10:55:22.823Z,98843.84
2023-04-28T10:56:56.878Z,98843.48
2023-04-28T10:58:20.941Z,98842.27
2023-04-28T10:59:52.492Z,98840.90
2023-04-28T11:01:26.037Z,98835.98
2023-04-28T11:02:49.582Z,98833.17
2023-04-28T11:04:19.070Z,98835.18
2023-04-28T11:05:41.608Z,98835.19
2023-04-28T11:07:03.701Z,98834.38
2023-04-28T11:08:28.273Z,98831.24
2023-04-28T11:10:09.549Z,98830.52
2023-04-28T11:11:34.916Z,98824.96
2023-04-28T11:13:07.953Z,98826.11
2023-04-28T11:14:45.187Z,98822.98
2023-04-28T11:16:07.040Z,98822.09
2023-04-28T11:17:29.254Z,98817.39
2023-04-28T11:18:54.411Z,98820.64
2023-04-28T11:20:29.910Z,98819.86
2023-04-28T11:22:01.465Z,98814.86
2023-04-28T11:23:23.785Z,98824.39
2023-04-28T11:25:08.075Z,98807.54
2023-04-28T11:26:37.433Z,98817.00
2023-04-28T11:28:10.854Z,98811.84
2023-04-28T11:29:47.112Z,98812.60
2023-04-28T11:31:21.210Z,98810.38
2023-04-28T11:33:07.046Z,98810.39
2023-04-28T11:34:48.112Z,98811.36
2023-04-28T11:36:10.002Z,98808.18
2023-04-28T11:37:44.227Z,98803.92
2023-04-28T11:39:05.316Z,98801.29
2023-04-28T11:40:27.394Z,98800.31
2023-04-28T11:41:49.107Z,98803.14
2023-04-28T11:43:11.118Z,98802.61
2023-04-28T11:44:37.697Z,98797.16
2023-04-28T11:46:11.430Z,98800.42
2023-04-28T11:47:37.959Z,98796.61
2023-04-28T11:49:14.250Z,98797.73
2023-04-28T11:50:45.680Z,98793.63
2023-04-28T11:52:30.433Z,98796.50
2023-04-28T11:54:09.750Z,98793.11
2023-04-28T11:55:50.600Z,98789.42
2023-04-28T11:57:19.858Z,98788.65
2023-04-28T11:58:49.111Z,98784.05
2023-04-28T12:00:11.636Z,98785.30
2023-04-28T12:01:44.871Z,98780.25
2023-04-28T12:03:09.143Z,98779.58
2023-04-28T12:04:38.670Z,98781.92
2023-04-28T12:06:12.052Z,98781.70
2023-04-28T12:07:36.279Z,98780.13
2023-04-28T12:09:16.761Z,98779.58
2023-04-28T12:10:38.658Z,98782.23
2023-04-28T12:12:11.939Z,98780.11
2023-04-28T12:13:36.197Z,98780.81
2023-04-28T12:15:22.181Z,98780.93
2023-04-28T12:16:49.610Z,98781.95
2023-04-28T12:18:20.568Z,98779.73
2023-04-28T12:19:57.406Z,98776.92
2023-04-28T12:21:22.077Z,98775.91
2023-04-28T12:22:43.546Z,98766.32
2023-04-28T12:24:07.706Z,98765.65
2023-04-28T12:25:51.590Z,98759.40
2023-04-28T12:27:15.512Z,98755.09
2023-04-28T12:28:40.258Z,98751.44
2023-04-28T12:30:11.635Z,98748.96
2023-04-28T12:31:48.821Z,98747.10
2023-04-28T12:33:20.006Z,98742.17
2023-04-28T12:34:41.919Z,98743.89
2023-04-28T12:36:13.475Z,98741.61
2023-04-28T12:37:43.017Z,98739.45
2023-04-28T12:39:18.952Z,98737.84
2023-04-28T12:40:52.906Z,98736.43
2023-04-28T12:42:26.248Z,98736.19
2023-04-28T12:43:48.294Z,98729.70
2023-04-28T12:45:10.286Z,98725.52
2023-04-28T12:46:33.497Z,98728.39
2023-04-28T12:48:04.591Z,98726.52
2023-04-28T12:49:28.854Z,98727.55
2023-04-28T12:51:05.386Z,98725.05
2023-04-28T12:52:29.506Z,98727.02
2023-04-28T12:54:13.136Z,98727.46
2023-04-28T12:55:54.320Z,98724.86
2023-04-28T12:57:23.331Z,98721.57
2023-04-28T12:58:45.190Z,98714.98
2023-04-28T13:00:21.062Z,98718.23
2023-04-28T13:01:56.768Z,98707.53
2023-04-28T13:03:30.754Z,98706.13
2023-04-28T13:05:11.921Z,98701.65
2023-04-28T13:06:56.314Z,98705.65
2023-04-28T13:08:34.008Z,98698.77
2023-04-28T13:09:58.376Z,98703.05
2023-04-28T13:11:41.469Z,98711.25
2023-04-28T13:13:03.314Z,98707.77
2023-04-28T13:14:25.255Z,98703.67
2023-04-28T13:15:58.822Z,98700.91
2023-04-28T13:17:34.959Z,98699.11
2023-04-28T13:19:15.596Z,98698.86
2023-04-28T13:20:49.447Z,98698.06
2023-04-28T13:22:23.209Z,98697.48
2023-04-28T13:24:04.224Z,98701.77
2023-04-28T13:25:58.477Z,98699.49
2023-04-28T13:27:41.910Z,98692.63
2023-04-28T13:29:05.252Z,98690.92
2023-04-28T13:30:26.770Z,98694.95
2023-04-28T13:32:11.804Z,98687.92
2023-04-28T13:33:47.696Z,98685.65
2023-04-28T13:35:21.191Z,98681.79
2023-04-28T13:36:55.389Z,98684.40
2023-04-28T13:38:17.258Z,98682.59
2023-04-28T13:39:53.509Z,98679.50
2023-04-28T13:41:15.347Z,98678.89
2023-04-28T13:42:51.303Z,98679.10
2023-04-28T13:44:24.820Z,98673.30
2023-04-28T13:45:51.103Z,98673.46
2023-04-28T13:47:12.511Z,98673.78
2023-04-28T13:48:35.128Z,98669.86
2023-04-28T13:50:08.687Z,98666.59
2023-04-28T13:51:58.464Z,98664.17
2023-04-28T13:53:43.806Z,98654.30
2023-04-28T13:55:28.725Z,98664.30
2023-04-28T13:57:02.824Z,98659.02
2023-04-28T13:58:45.043Z,98659.72
2023-04-28T14:00:06.977Z,98654.38
2023-04-28T14:01:41.083Z,98640.98
2023-04-28T14:03:25.564Z,98651.70
2023-04-28T14:05:00.681Z,98652.41
2023-04-28T14:06:30.286Z,98649.56
2023-04-28T14:08:16.860Z,98651.42
2023-04-28T14:09:49.319Z,98647.24
2023-04-28T14:11:13.411Z,98648.12
2023-04-28T14:12:47.088Z,98642.93
2023-04-28T14:14:20.485Z,98643.09
2023-04-28T14:15:59.972Z,98639.88
2023-04-28T14:17:46.335Z,98638.38
2023-04-28T14:19:38.548Z,98636.67
2023-04-28T14:21:00.208Z,98640.23
2023-04-28T14:22:36.214Z,98635.66
2023-04-28T14:24:22.118Z,98634.95
2023-04-28T14:25:56.141Z,98633.56
2023-04-28T14:27:29.697Z,98627.34
2023-04-28T14:29:09.960Z,98626.38
2023-04-28T14:31:03.432Z,98625.23
2023-04-28T14:32:43.087Z,98624.32
2023-04-28T14:34:05.175Z,98622.55
2023-04-28T14:35:31.597Z,98621.03
2023-04-28T14:37:02.866Z,98618.58
2023-04-28T14:38:46.809Z,98617.61
2023-04-28T14:40:22.833Z,98615.91
2023-04-28T14:42:04.380Z,98623.85
2023-04-28T14:43:38.710Z,98620.61
2023-04-28T14:45:12.345Z,98618.02
2023-04-28T14:46:34.548Z,98619.87
2023-04-28T14:48:10.240Z,98616.80
2023-04-28T14:49:55.326Z,98611.91
2023-04-28T14:51:16.849Z,98600.14
2023-04-28T14:52:53.060Z,98613.18
2023-04-28T14:54:33.736Z,98611.95
2023-04-28T14:56:17.952Z,98613.48
2023-04-28T14:57:52.751Z,98605.52
2023-04-28T14:59:14.290Z,98606.79
2023-04-28T15:00:50.453Z,98606.34
2023-04-28T15:02:38.109Z,98605.63
2023-04-28T15:03:59.823Z,98602.61
2023-04-28T15:05:33.207Z,98603.48
2023-04-28T15:07:08.868Z,98602.48
2023-04-28T15:08:50.668Z,98605.10
2023-04-28T15:10:24.336Z,98601.31
2023-04-28T15:11:46.313Z,98594.94
2023-04-28T15:13:08.340Z,98600.77
2023-04-28T15:14:44.460Z,98599.06
2023-04-28T15:16:29.240Z,98599.66
2023-04-28T15:18:01.243Z,98602.84
2023-04-28T15:19:47.478Z,98603.49
2023-04-28T15:21:20.864Z,98601.25
2023-04-28T15:22:53.270Z,98598.99
2023-04-28T15:24:26.895Z,98594.14
2023-04-28T15:26:01.588Z,98599.18
2023-04-28T15:27:30.704Z,98597.04
2023-04-28T15:29:04.792Z,98594.40
2023-04-28T15:30:34.354Z,98591.66
2023-04-28T15:32:03.608Z,98589.39
2023-04-28T15:33:25.698Z,98586.38
2023-04-28T15:34:57.295Z,98586.51
2023-04-28T15:36:21.484Z,98588.21
2023-04-28T15:38:05.127Z,98588.60
2023-04-28T15:39:28.560Z,98591.48
2023-04-28T15:40:50.359Z,98588.31
2023-04-28T15:42:31.467Z,98584.53
2023-04-28T15:44:04.974Z,98583.98
2023-04-28T15:45:37.196Z,98581.88
2023-04-28T15:47:10.677Z,98583.97
2023-04-28T15:48:32.774Z,98583.28
2023-04-28T15:50:16.987Z,98582.66
2023-04-28T15:51:59.812Z,98580.75
2023-04-28T15:53:53.424Z,98583.80
2023-04-28T15:55:34.461Z,98586.89
2023-04-28T15:57:01.457Z,98580.79
2023-04-28T15:58:48.006Z,98577.13
2023-04-28T16:00:17.015Z,98578.29
2023-04-28T16:01:53.217Z,98575.86
2023-04-28T16:03:26.865Z,98574.19
2023-04-28T16:05:10.655Z,98571.67
2023-04-28T16:06:35.121Z,98570.45
2023-04-28T16:08:19.947Z,98568.89
2023-04-28T16:09:56.403Z,98568.02
2023-04-28T16:11:25.764Z,98567.83
2023-04-28T16:13:10.745Z,98565.14
2023-04-28T16:14:36.988Z,98564.40
2023-04-28T16:16:11.973Z,98561.58
2023-04-28T16:17:53.205Z,98560.30
2023-04-28T16:19:29.407Z,98559.04
2023-04-28T16:20:51.811Z,98559.21
2023-04-28T16:22:25.292Z,98557.04
2023-04-28T16:23:46.916Z,98553.53
2023-04-28T16:25:10.706Z,98556.68
2023-04-28T16:26:32.871Z,98547.67
2023-04-28T16:27:57.280Z,98556.21
2023-04-28T16:29:45.001Z,98552.63
2023-04-28T16:31:20.340Z,98550.98
2023-04-28T16:32:42.731Z,98547.98
2023-04-28T16:34:18.718Z,98551.27
2023-04-28T16:35:59.745Z,98550.48
2023-04-28T16:37:33.351Z,98547.38
2023-04-28T16:38:57.932Z,98544.98
2023-04-28T16:40:22.010Z,98543.75
2023-04-28T16:42:07.192Z,98541.15
2023-04-28T16:43:31.849Z,98541.91
2023-04-28T16:44:53.817Z,98542.77
2023-04-28T16:46:15.120Z,98539.73
2023-04-28T16:47:38.045Z,98539.67
2023-04-28T16:49:23.300Z,98537.49
2023-04-28T16:50:56.396Z,98532.88
2023-04-28T16:52:50.031Z,98534.61
2023-04-28T16:54:44.499Z,98537.14
2023-04-28T16:56:20.308Z,98530.83
2023-04-28T16:58:05.534Z,98529.76
2023-04-28T16:59:51.165Z,98528.33
2023-04-28T17:01:15.383Z,98526.90
2023-04-28T17:02:42.146Z,98526.05
2023-04-28T17:04:27.372Z,98524.27
2023-04-28T17:05:52.175Z,98521.84
2023-04-28T17:07:25.762Z,98525.64
2023-04-28T17:08:54.798Z,98510.84
2023-04-28T17:10:25.973Z,98523.11
2023-04-28T17:11:52.824Z,98520.84
2023-04-28T17:13:28.940Z,98518.35
2023-04-28T17:15:02.092Z,98519.02
2023-04-28T17:16:55.699Z,98516.63
2023-04-28T17:18:36.747Z,98510.88
2023-04-28T17:20:10.410Z,98516.60
2023-04-28T17:22:05.520Z,98512.68
2023-04-28T17:23:34.774Z,98511.48
2023-04-28T17:25:19.533Z,98515.94
2023-04-28T17:27:04.556Z,98514.84
2023-04-28T17:28:58.524Z,98509.53
2023-04-28T17:30:38.369Z,98509.41
2023-04-28T17:32:11.834Z,98509.45
2023-04-28T17:33:57.172Z,98506.23
2023-04-28T17:35:33.196Z,98506.89
2023-04-28T17:37:18.464Z,98507.38
2023-04-28T17:39:13.185Z,98504.53
2023-04-28T17:40:48.703Z,98502.55
2023-04-28T17:42:19.819Z,98501.58
2023-04-28T17:44:02.527Z,98505.51
2023-04-28T17:45:48.651Z,98503.67
2023-04-28T17:47:43.536Z,98500.61
2023-04-28T17:49:16.709Z,98502.95
2023-04-28T17:50:50.127Z,98505.39
2023-04-28T17:52:23.905Z,98502.28
2023-04-28T17:54:09.317Z,98503.58
2023-04-28T17:55:59.535Z,98507.64
2023-04-28T17:57:44.916Z,98506.96
2023-04-28T17:59:18.447Z,98506.63
2023-04-28T18:00:51.779Z,98508.40
2023-04-28T18:02:27.214Z,98509.85
2023-04-28T18:03:58.911Z,98498.95
2023-04-28T18:05:23.079Z,98511.83
2023-04-28T18:06:54.666Z,98509.73
2023-04-28T18:08:23.731Z,98508.60
2023-04-28T18:09:57.270Z,98507.35
2023-04-28T18:11:21.800Z,98507.61
2023-04-28T18:13:02.291Z,98510.53
2023-04-28T18:14:28.469Z,98511.05
2023-04-28T18:16:13.604Z,98510.90
2023-04-28T18:17:49.296Z,98511.83